sensor_id;sensor_type;location;lat;lon;timestamp;temperature;humidity
34766;DHT22;20984;43.508;1.504;2022-12-13T00:00:41;4.40;99.90
34766;DHT22;20984;43.508;1.504;2022-12-13T00:03:07;4.40;99.90
34766;DHT22;20984;43.508;1.504;2022-12-13T00:05:33;4.50;99.90
34766;DHT22;20984;43.508;1.504;2022-12-13T00:08:00;4.50;99.90
34766;DHT22;20984;43.508;1.504;2022-12-13T00:10:27;4.50;99.90
34766;DHT22;20984;43.508;1.504;2022-12-13T00:12:52;4.50;99.90
34766;DHT22;20984;43.508;1.504;2022-12-13T00:15:18;4.50;99.90
34766;DHT22;20984;43.508;1.504;2022-12-13T00:17:44;4.40;99.90
34766;DHT22;20984;43.508;1.504;2022-12-13T00:20:26;4.40;99.90
34766;DHT22;20984;43.508;1.504;2022-12-13T00:22:52;4.40;99.90
34766;DHT22;20984;43.508;1.504;2022-12-13T00:25:18;4.40;99.90
34766;DHT22;20984;43.508;1.504;2022-12-13T00:27:45;4.50;99.90
34766;DHT22;20984;43.508;1.504;2022-12-13T00:30:12;4.50;99.90
34766;DHT22;20984;43.508;1.504;2022-12-13T00:32:37;4.50;99.90
34766;DHT22;20984;43.508;1.504;2022-12-13T00:35:03;4.60;99.90
34766;DHT22;20984;43.508;1.504;2022-12-13T00:37:29;4.50;99.90
34766;DHT22;20984;43.508;1.504;2022-12-13T00:39:55;4.50;99.90
34766;DHT22;20984;43.508;1.504;2022-12-13T00:42:21;4.60;99.90
34766;DHT22;20984;43.508;1.504;2022-12-13T00:44:47;4.60;99.90
34766;DHT22;20984;43.508;1.504;2022-12-13T00:47:13;4.60;99.90
34766;DHT22;20984;43.508;1.504;2022-12-13T00:49:39;4.60;99.90
34766;DHT22;20984;43.508;1.504;2022-12-13T00:52:04;4.60;99.90
34766;DHT22;20984;43.508;1.504;2022-12-13T00:54:30;4.60;99.90
34766;DHT22;20984;43.508;1.504;2022-12-13T00:56:56;4.70;99.90
34766;DHT22;20984;43.508;1.504;2022-12-13T00:59:22;4.70;99.90
34766;DHT22;20984;43.508;1.504;2022-12-13T01:01:48;4.70;99.90
34766;DHT22;20984;43.508;1.504;2022-12-13T01:04:14;4.60;99.90
34766;DHT22;20984;43.508;1.504;2022-12-13T01:06:42;4.60;99.90
34766;DHT22;20984;43.508;1.504;2022-12-13T01:09:19;4.50;99.90
34766;DHT22;20984;43.508;1.504;2022-12-13T01:11:46;4.50;99.90
34766;DHT22;20984;43.508;1.504;2022-12-13T01:14:13;4.40;99.90
34766;DHT22;20984;43.508;1.504;2022-12-13T01:16:38;4.40;99.90
34766;DHT22;20984;43.508;1.504;2022-12-13T01:19:04;4.40;99.90
34766;DHT22;20984;43.508;1.504;2022-12-13T01:21:30;4.40;99.90
34766;DHT22;20984;43.508;1.504;2022-12-13T01:24:01;4.40;99.90
34766;DHT22;20984;43.508;1.504;2022-12-13T01:26:27;4.30;99.90
34766;DHT22;20984;43.508;1.504;2022-12-13T01:28:53;4.30;99.90
34766;DHT22;20984;43.508;1.504;2022-12-13T01:31:20;4.30;99.90
34766;DHT22;20984;43.508;1.504;2022-12-13T01:33:46;4.40;99.90
34766;DHT22;20984;43.508;1.504;2022-12-13T01:36:15;4.40;99.90
34766;DHT22;20984;43.508;1.504;2022-12-13T01:38:41;4.40;99.90
34766;DHT22;20984;43.508;1.504;2022-12-13T01:41:12;4.40;99.90
34766;DHT22;20984;43.508;1.504;2022-12-13T01:46:09;4.30;99.90
34766;DHT22;20984;43.508;1.504;2022-12-13T01:49:00;4.30;99.90
34766;DHT22;20984;43.508;1.504;2022-12-13T01:51:53;4.30;99.90
34766;DHT22;20984;43.508;1.504;2022-12-13T01:54:24;4.30;99.90
34766;DHT22;20984;43.508;1.504;2022-12-13T01:56:53;4.40;99.90
34766;DHT22;20984;43.508;1.504;2022-12-13T01:59:21;4.30;99.90
34766;DHT22;20984;43.508;1.504;2022-12-13T02:01:49;4.40;99.90
34766;DHT22;20984;43.508;1.504;2022-12-13T02:04:36;4.40;99.90
34766;DHT22;20984;43.508;1.504;2022-12-13T02:07:04;4.40;99.90
34766;DHT22;20984;43.508;1.504;2022-12-13T02:09:33;4.40;99.90
34766;DHT22;20984;43.508;1.504;2022-12-13T02:12:00;4.50;99.90
34766;DHT22;20984;43.508;1.504;2022-12-13T02:14:27;4.50;99.90
34766;DHT22;20984;43.508;1.504;2022-12-13T02:22:53;4.50;99.90
34766;DHT22;20984;43.508;1.504;2022-12-13T02:31:22;4.40;99.90
34766;DHT22;20984;43.508;1.504;2022-12-13T02:34:04;4.40;99.90
34766;DHT22;20984;43.508;1.504;2022-12-13T02:39:35;4.40;99.90
34766;DHT22;20984;43.508;1.504;2022-12-13T02:42:24;4.40;99.90
34766;DHT22;20984;43.508;1.504;2022-12-13T02:45:13;4.40;99.90
34766;DHT22;20984;43.508;1.504;2022-12-13T02:47:41;4.40;99.90
34766;DHT22;20984;43.508;1.504;2022-12-13T02:50:10;4.40;99.90
34766;DHT22;20984;43.508;1.504;2022-12-13T02:52:38;4.30;99.90
34766;DHT22;20984;43.508;1.504;2022-12-13T02:55:11;4.30;99.90
34766;DHT22;20984;43.508;1.504;2022-12-13T02:57:40;4.30;99.90
34766;DHT22;20984;43.508;1.504;2022-12-13T03:00:12;4.30;99.90
34766;DHT22;20984;43.508;1.504;2022-12-13T03:08:26;4.30;99.90
34766;DHT22;20984;43.508;1.504;2022-12-13T03:13:53;4.40;99.90
34766;DHT22;20984;43.508;1.504;2022-12-13T03:16:32;4.40;99.90
34766;DHT22;20984;43.508;1.504;2022-12-13T03:19:04;4.30;99.90
34766;DHT22;20984;43.508;1.504;2022-12-13T03:21:40;4.30;99.90
34766;DHT22;20984;43.508;1.504;2022-12-13T03:24:06;4.20;99.90
34766;DHT22;20984;43.508;1.504;2022-12-13T03:26:32;4.10;99.90
34766;DHT22;20984;43.508;1.504;2022-12-13T03:28:58;4.10;99.90
34766;DHT22;20984;43.508;1.504;2022-12-13T03:31:24;4.00;99.90
34766;DHT22;20984;43.508;1.504;2022-12-13T03:33:50;3.90;99.90
34766;DHT22;20984;43.508;1.504;2022-12-13T03:36:16;3.90;99.90
34766;DHT22;20984;43.508;1.504;2022-12-13T03:38:44;3.90;99.90
34766;DHT22;20984;43.508;1.504;2022-12-13T03:41:16;3.90;99.90
34766;DHT22;20984;43.508;1.504;2022-12-13T03:43:43;3.90;99.90
34766;DHT22;20984;43.508;1.504;2022-12-13T03:46:10;4.00;99.90
34766;DHT22;20984;43.508;1.504;2022-12-13T03:48:36;4.10;99.90
34766;DHT22;20984;43.508;1.504;2022-12-13T03:51:02;4.20;99.90
34766;DHT22;20984;43.508;1.504;2022-12-13T03:53:28;4.20;99.90
34766;DHT22;20984;43.508;1.504;2022-12-13T03:55:54;4.30;99.90
34766;DHT22;20984;43.508;1.504;2022-12-13T03:58:20;4.40;99.90
34766;DHT22;20984;43.508;1.504;2022-12-13T04:00:46;4.40;99.90
34766;DHT22;20984;43.508;1.504;2022-12-13T04:03:12;4.60;99.90
34766;DHT22;20984;43.508;1.504;2022-12-13T04:05:38;4.60;99.90
34766;DHT22;20984;43.508;1.504;2022-12-13T04:08:04;4.60;99.90
34766;DHT22;20984;43.508;1.504;2022-12-13T04:10:30;4.50;99.90
34766;DHT22;20984;43.508;1.504;2022-12-13T04:12:56;4.60;99.90
34766;DHT22;20984;43.508;1.504;2022-12-13T04:15:40;4.60;99.90
34766;DHT22;20984;43.508;1.504;2022-12-13T04:18:17;4.70;99.90
34766;DHT22;20984;43.508;1.504;2022-12-13T04:20:44;4.60;99.90
34766;DHT22;20984;43.508;1.504;2022-12-13T04:23:10;4.70;99.90
34766;DHT22;20984;43.508;1.504;2022-12-13T04:25:37;4.60;99.90
34766;DHT22;20984;43.508;1.504;2022-12-13T04:28:04;4.60;99.90
34766;DHT22;20984;43.508;1.504;2022-12-13T04:30:30;4.60;99.90
34766;DHT22;20984;43.508;1.504;2022-12-13T04:32:56;4.60;99.90
34766;DHT22;20984;43.508;1.504;2022-12-13T04:35:22;4.50;99.90
34766;DHT22;20984;43.508;1.504;2022-12-13T04:37:48;4.40;99.90
34766;DHT22;20984;43.508;1.504;2022-12-13T04:40:14;4.40;99.90
34766;DHT22;20984;43.508;1.504;2022-12-13T04:42:39;4.30;99.90
34766;DHT22;20984;43.508;1.504;2022-12-13T04:45:06;4.30;99.90
34766;DHT22;20984;43.508;1.504;2022-12-13T04:47:32;4.30;99.90
34766;DHT22;20984;43.508;1.504;2022-12-13T04:49:57;4.30;99.90
34766;DHT22;20984;43.508;1.504;2022-12-13T04:52:23;4.20;99.90
34766;DHT22;20984;43.508;1.504;2022-12-13T04:54:49;4.20;99.90
34766;DHT22;20984;43.508;1.504;2022-12-13T04:57:15;4.20;99.90
34766;DHT22;20984;43.508;1.504;2022-12-13T04:59:41;4.20;99.90
34766;DHT22;20984;43.508;1.504;2022-12-13T05:02:11;4.10;99.90
34766;DHT22;20984;43.508;1.504;2022-12-13T05:04:37;4.00;99.90
34766;DHT22;20984;43.508;1.504;2022-12-13T05:07:03;4.00;99.90
34766;DHT22;20984;43.508;1.504;2022-12-13T05:09:29;4.00;99.90
34766;DHT22;20984;43.508;1.504;2022-12-13T05:11:55;3.90;99.90
34766;DHT22;20984;43.508;1.504;2022-12-13T05:14:21;3.80;99.90
34766;DHT22;20984;43.508;1.504;2022-12-13T05:16:47;3.80;99.90
34766;DHT22;20984;43.508;1.504;2022-12-13T05:19:13;3.80;99.90
34766;DHT22;20984;43.508;1.504;2022-12-13T05:21:39;3.80;99.90
34766;DHT22;20984;43.508;1.504;2022-12-13T05:24:05;3.70;99.90
34766;DHT22;20984;43.508;1.504;2022-12-13T05:26:31;3.70;99.90
34766;DHT22;20984;43.508;1.504;2022-12-13T05:28:57;3.70;99.90
34766;DHT22;20984;43.508;1.504;2022-12-13T05:31:23;3.70;99.90
34766;DHT22;20984;43.508;1.504;2022-12-13T05:33:50;3.70;99.90
34766;DHT22;20984;43.508;1.504;2022-12-13T05:36:16;3.70;99.90
34766;DHT22;20984;43.508;1.504;2022-12-13T05:38:42;3.70;99.90
34766;DHT22;20984;43.508;1.504;2022-12-13T05:41:16;3.60;99.90
34766;DHT22;20984;43.508;1.504;2022-12-13T05:43:43;3.60;99.90
34766;DHT22;20984;43.508;1.504;2022-12-13T05:46:12;3.80;99.90
34766;DHT22;20984;43.508;1.504;2022-12-13T05:48:39;3.80;99.90
34766;DHT22;20984;43.508;1.504;2022-12-13T05:51:05;3.90;99.90
34766;DHT22;20984;43.508;1.504;2022-12-13T05:53:31;3.80;99.90
34766;DHT22;20984;43.508;1.504;2022-12-13T05:56:00;3.80;99.90
34766;DHT22;20984;43.508;1.504;2022-12-13T05:58:27;3.70;99.90
34766;DHT22;20984;43.508;1.504;2022-12-13T06:00:53;3.70;99.90
34766;DHT22;20984;43.508;1.504;2022-12-13T06:03:19;3.60;99.90
34766;DHT22;20984;43.508;1.504;2022-12-13T06:05:45;3.50;99.90
34766;DHT22;20984;43.508;1.504;2022-12-13T06:08:11;3.50;99.90
34766;DHT22;20984;43.508;1.504;2022-12-13T06:10:37;3.50;99.90
34766;DHT22;20984;43.508;1.504;2022-12-13T06:13:03;3.60;99.90
34766;DHT22;20984;43.508;1.504;2022-12-13T06:15:30;3.50;99.90
34766;DHT22;20984;43.508;1.504;2022-12-13T06:17:58;3.50;99.90
34766;DHT22;20984;43.508;1.504;2022-12-13T06:20:24;3.60;99.90
34766;DHT22;20984;43.508;1.504;2022-12-13T06:22:53;3.70;99.90
34766;DHT22;20984;43.508;1.504;2022-12-13T06:25:19;3.70;99.90
34766;DHT22;20984;43.508;1.504;2022-12-13T06:27:45;3.80;99.90
34766;DHT22;20984;43.508;1.504;2022-12-13T06:30:11;3.90;99.90
34766;DHT22;20984;43.508;1.504;2022-12-13T06:32:37;4.00;99.90
34766;DHT22;20984;43.508;1.504;2022-12-13T06:35:03;4.20;99.90
34766;DHT22;20984;43.508;1.504;2022-12-13T06:37:29;4.20;99.90
34766;DHT22;20984;43.508;1.504;2022-12-13T06:39:55;4.30;99.90
34766;DHT22;20984;43.508;1.504;2022-12-13T06:42:21;4.40;99.90
34766;DHT22;20984;43.508;1.504;2022-12-13T06:44:47;4.50;99.90
34766;DHT22;20984;43.508;1.504;2022-12-13T06:47:16;4.50;99.90
34766;DHT22;20984;43.508;1.504;2022-12-13T06:49:42;4.40;99.90
34766;DHT22;20984;43.508;1.504;2022-12-13T06:52:09;4.50;99.90
34766;DHT22;20984;43.508;1.504;2022-12-13T06:54:37;4.50;99.90
34766;DHT22;20984;43.508;1.504;2022-12-13T06:57:02;4.50;99.90
34766;DHT22;20984;43.508;1.504;2022-12-13T06:59:28;4.50;99.90
34766;DHT22;20984;43.508;1.504;2022-12-13T07:01:54;4.50;99.90
34766;DHT22;20984;43.508;1.504;2022-12-13T07:04:20;4.50;99.90
34766;DHT22;20984;43.508;1.504;2022-12-13T07:06:46;4.60;99.90
34766;DHT22;20984;43.508;1.504;2022-12-13T07:09:11;4.50;99.90
34766;DHT22;20984;43.508;1.504;2022-12-13T07:11:37;4.60;99.90
34766;DHT22;20984;43.508;1.504;2022-12-13T07:14:03;4.60;99.90
34766;DHT22;20984;43.508;1.504;2022-12-13T07:16:29;4.60;99.90
34766;DHT22;20984;43.508;1.504;2022-12-13T07:18:59;4.50;99.90
34766;DHT22;20984;43.508;1.504;2022-12-13T07:21:25;4.40;99.90
34766;DHT22;20984;43.508;1.504;2022-12-13T07:23:53;4.40;99.90
34766;DHT22;20984;43.508;1.504;2022-12-13T07:26:18;4.30;99.90
34766;DHT22;20984;43.508;1.504;2022-12-13T07:28:45;4.30;99.90
34766;DHT22;20984;43.508;1.504;2022-12-13T07:31:11;4.20;99.90
34766;DHT22;20984;43.508;1.504;2022-12-13T07:33:37;4.10;99.90
34766;DHT22;20984;43.508;1.504;2022-12-13T07:36:07;4.10;99.90
34766;DHT22;20984;43.508;1.504;2022-12-13T07:38:36;4.10;99.90
34766;DHT22;20984;43.508;1.504;2022-12-13T07:41:03;4.00;99.90
34766;DHT22;20984;43.508;1.504;2022-12-13T07:43:30;4.00;99.90
34766;DHT22;20984;43.508;1.504;2022-12-13T07:46:04;4.00;99.90
34766;DHT22;20984;43.508;1.504;2022-12-13T07:48:31;4.10;99.90
34766;DHT22;20984;43.508;1.504;2022-12-13T07:51:03;4.20;99.90
34766;DHT22;20984;43.508;1.504;2022-12-13T07:53:29;4.30;99.90
34766;DHT22;20984;43.508;1.504;2022-12-13T07:55:56;4.30;99.90
34766;DHT22;20984;43.508;1.504;2022-12-13T07:58:21;4.40;99.90
34766;DHT22;20984;43.508;1.504;2022-12-13T08:00:47;4.50;99.90
34766;DHT22;20984;43.508;1.504;2022-12-13T08:03:14;4.50;99.90
34766;DHT22;20984;43.508;1.504;2022-12-13T08:05:40;4.50;99.90
34766;DHT22;20984;43.508;1.504;2022-12-13T08:08:08;4.60;99.90
34766;DHT22;20984;43.508;1.504;2022-12-13T08:10:35;4.60;99.90
34766;DHT22;20984;43.508;1.504;2022-12-13T08:13:02;4.60;99.90
34766;DHT22;20984;43.508;1.504;2022-12-13T08:15:28;4.60;99.90
34766;DHT22;20984;43.508;1.504;2022-12-13T08:17:55;4.70;99.90
34766;DHT22;20984;43.508;1.504;2022-12-13T08:20:21;4.70;99.90
34766;DHT22;20984;43.508;1.504;2022-12-13T08:22:56;4.80;99.90
34766;DHT22;20984;43.508;1.504;2022-12-13T08:25:23;4.80;99.90
34766;DHT22;20984;43.508;1.504;2022-12-13T08:27:49;4.80;99.90
34766;DHT22;20984;43.508;1.504;2022-12-13T08:30:15;4.90;99.90
34766;DHT22;20984;43.508;1.504;2022-12-13T08:32:41;4.90;99.90
34766;DHT22;20984;43.508;1.504;2022-12-13T08:35:07;5.00;99.90
34766;DHT22;20984;43.508;1.504;2022-12-13T08:37:33;5.00;99.90
34766;DHT22;20984;43.508;1.504;2022-12-13T08:39:59;5.00;99.90
34766;DHT22;20984;43.508;1.504;2022-12-13T08:42:25;5.10;99.90
34766;DHT22;20984;43.508;1.504;2022-12-13T08:44:52;5.20;99.90
34766;DHT22;20984;43.508;1.504;2022-12-13T08:47:19;5.20;99.90
34766;DHT22;20984;43.508;1.504;2022-12-13T08:49:45;5.30;99.90
34766;DHT22;20984;43.508;1.504;2022-12-13T08:52:11;5.40;99.90
34766;DHT22;20984;43.508;1.504;2022-12-13T08:54:37;5.50;99.90
34766;DHT22;20984;43.508;1.504;2022-12-13T08:57:03;5.50;99.90
34766;DHT22;20984;43.508;1.504;2022-12-13T08:59:29;5.60;99.90
34766;DHT22;20984;43.508;1.504;2022-12-13T09:01:55;5.60;99.90
34766;DHT22;20984;43.508;1.504;2022-12-13T09:04:20;5.70;99.90
34766;DHT22;20984;43.508;1.504;2022-12-13T09:06:46;5.80;99.90
34766;DHT22;20984;43.508;1.504;2022-12-13T09:09:12;5.80;99.90
34766;DHT22;20984;43.508;1.504;2022-12-13T09:11:39;5.90;99.90
34766;DHT22;20984;43.508;1.504;2022-12-13T09:14:06;5.90;99.90
34766;DHT22;20984;43.508;1.504;2022-12-13T09:16:31;6.00;99.90
34766;DHT22;20984;43.508;1.504;2022-12-13T09:19:02;6.10;99.90
34766;DHT22;20984;43.508;1.504;2022-12-13T09:21:28;6.20;99.90
34766;DHT22;20984;43.508;1.504;2022-12-13T09:23:54;6.30;99.90
34766;DHT22;20984;43.508;1.504;2022-12-13T09:26:20;6.40;99.90
34766;DHT22;20984;43.508;1.504;2022-12-13T09:28:46;6.50;99.90
34766;DHT22;20984;43.508;1.504;2022-12-13T09:31:17;6.50;99.90
34766;DHT22;20984;43.508;1.504;2022-12-13T09:33:43;6.50;99.90
34766;DHT22;20984;43.508;1.504;2022-12-13T09:36:15;6.50;99.90
34766;DHT22;20984;43.508;1.504;2022-12-13T09:38:41;6.60;99.90
34766;DHT22;20984;43.508;1.504;2022-12-13T09:43:48;6.80;99.90
34766;DHT22;20984;43.508;1.504;2022-12-13T09:46:32;6.90;99.90
34766;DHT22;20984;43.508;1.504;2022-12-13T09:49:01;7.00;99.90
34766;DHT22;20984;43.508;1.504;2022-12-13T09:51:29;7.10;99.90
34766;DHT22;20984;43.508;1.504;2022-12-13T09:53:58;7.20;99.90
34766;DHT22;20984;43.508;1.504;2022-12-13T09:56:24;7.20;99.90
34766;DHT22;20984;43.508;1.504;2022-12-13T09:58:52;7.20;99.90
34766;DHT22;20984;43.508;1.504;2022-12-13T10:01:19;7.30;99.90
34766;DHT22;20984;43.508;1.504;2022-12-13T10:03:51;7.30;99.90
34766;DHT22;20984;43.508;1.504;2022-12-13T10:06:20;7.40;99.90
34766;DHT22;20984;43.508;1.504;2022-12-13T10:08:51;7.50;99.90
34766;DHT22;20984;43.508;1.504;2022-12-13T10:11:19;7.50;99.90
34766;DHT22;20984;43.508;1.504;2022-12-13T10:14:10;7.60;99.90
34766;DHT22;20984;43.508;1.504;2022-12-13T10:17:07;7.80;99.90
34766;DHT22;20984;43.508;1.504;2022-12-13T10:19:40;7.80;99.90
34766;DHT22;20984;43.508;1.504;2022-12-13T10:22:14;8.00;99.90
34766;DHT22;20984;43.508;1.504;2022-12-13T10:24:57;8.10;99.90
34766;DHT22;20984;43.508;1.504;2022-12-13T10:27:43;8.10;99.90
34766;DHT22;20984;43.508;1.504;2022-12-13T10:30:19;8.20;99.90
34766;DHT22;20984;43.508;1.504;2022-12-13T10:35:32;8.40;99.90
34766;DHT22;20984;43.508;1.504;2022-12-13T10:40:37;8.50;99.90
34766;DHT22;20984;43.508;1.504;2022-12-13T10:43:26;8.50;99.90
34766;DHT22;20984;43.508;1.504;2022-12-13T10:48:23;8.50;99.90
34766;DHT22;20984;43.508;1.504;2022-12-13T10:54:14;8.50;99.90
34766;DHT22;20984;43.508;1.504;2022-12-13T10:56:22;8.50;99.90
34766;DHT22;20984;43.508;1.504;2022-12-13T11:01:42;8.70;99.90
34766;DHT22;20984;43.508;1.504;2022-12-13T11:06:54;8.90;99.90
34766;DHT22;20984;43.508;1.504;2022-12-13T11:09:32;8.90;99.90
34766;DHT22;20984;43.508;1.504;2022-12-13T11:12:01;8.80;99.90
34766;DHT22;20984;43.508;1.504;2022-12-13T11:14:33;8.80;99.90
34766;DHT22;20984;43.508;1.504;2022-12-13T11:17:12;8.90;99.90
34766;DHT22;20984;43.508;1.504;2022-12-13T11:19:43;9.00;99.90
34766;DHT22;20984;43.508;1.504;2022-12-13T11:22:19;9.00;99.90
34766;DHT22;20984;43.508;1.504;2022-12-13T11:24:49;9.10;99.90
34766;DHT22;20984;43.508;1.504;2022-12-13T11:30:11;9.10;99.90
34766;DHT22;20984;43.508;1.504;2022-12-13T11:41:26;9.50;99.90
34766;DHT22;20984;43.508;1.504;2022-12-13T11:44:04;9.60;99.90
34766;DHT22;20984;43.508;1.504;2022-12-13T11:49:11;9.70;99.90
34766;DHT22;20984;43.508;1.504;2022-12-13T11:54:48;9.80;99.90
34766;DHT22;20984;43.508;1.504;2022-12-13T11:59:59;10.00;99.90
34766;DHT22;20984;43.508;1.504;2022-12-13T12:02:33;10.00;99.90
34766;DHT22;20984;43.508;1.504;2022-12-13T12:07:59;10.10;99.90
34766;DHT22;20984;43.508;1.504;2022-12-13T12:10:40;10.00;99.90
34766;DHT22;20984;43.508;1.504;2022-12-13T12:14:08;10.10;99.90
34766;DHT22;20984;43.508;1.504;2022-12-13T12:19:21;10.10;99.90
34766;DHT22;20984;43.508;1.504;2022-12-13T12:46:39;9.90;99.90
34766;DHT22;20984;43.508;1.504;2022-12-13T13:03:28;10.30;99.90
34766;DHT22;20984;43.508;1.504;2022-12-13T13:08:41;10.40;99.90
34766;DHT22;20984;43.508;1.504;2022-12-13T13:11:09;10.50;99.90
34766;DHT22;20984;43.508;1.504;2022-12-13T13:16:37;10.50;99.90
34766;DHT22;20984;43.508;1.504;2022-12-13T13:26:37;10.40;99.90
34766;DHT22;20984;43.508;1.504;2022-12-13T13:32:23;10.20;99.90
34766;DHT22;20984;43.508;1.504;2022-12-13T13:34:50;10.20;99.90
34766;DHT22;20984;43.508;1.504;2022-12-13T13:40:01;10.10;99.90
34766;DHT22;20984;43.508;1.504;2022-12-13T13:42:28;10.00;99.90
34766;DHT22;20984;43.508;1.504;2022-12-13T13:47:37;9.90;99.90
34766;DHT22;20984;43.508;1.504;2022-12-13T13:52:56;9.80;99.90
34766;DHT22;20984;43.508;1.504;2022-12-13T13:55:58;9.70;99.90
34766;DHT22;20984;43.508;1.504;2022-12-13T14:12:55;9.20;99.90
34766;DHT22;20984;43.508;1.504;2022-12-13T14:29:32;8.80;99.90
34766;DHT22;20984;43.508;1.504;2022-12-13T14:31:59;8.70;99.90
34766;DHT22;20984;43.508;1.504;2022-12-13T14:34:29;8.70;99.90
34766;DHT22;20984;43.508;1.504;2022-12-13T14:37:02;8.70;99.90
34766;DHT22;20984;43.508;1.504;2022-12-13T14:39:29;8.80;99.90
34766;DHT22;20984;43.508;1.504;2022-12-13T14:41:57;8.80;99.90
34766;DHT22;20984;43.508;1.504;2022-12-13T14:44:26;8.70;99.90
34766;DHT22;20984;43.508;1.504;2022-12-13T14:46:56;8.70;99.90
34766;DHT22;20984;43.508;1.504;2022-12-13T14:49:25;8.70;99.90
34766;DHT22;20984;43.508;1.504;2022-12-13T14:54:48;8.60;99.90
34766;DHT22;20984;43.508;1.504;2022-12-13T14:57:17;8.60;99.90
34766;DHT22;20984;43.508;1.504;2022-12-13T14:59:46;8.50;99.90
34766;DHT22;20984;43.508;1.504;2022-12-13T15:02:16;8.50;99.90
34766;DHT22;20984;43.508;1.504;2022-12-13T15:04:42;8.50;99.90
34766;DHT22;20984;43.508;1.504;2022-12-13T15:07:30;8.50;99.90
34766;DHT22;20984;43.508;1.504;2022-12-13T15:10:14;8.50;99.90
34766;DHT22;20984;43.508;1.504;2022-12-13T15:12:44;8.50;99.90
34766;DHT22;20984;43.508;1.504;2022-12-13T15:15:22;8.40;99.90
34766;DHT22;20984;43.508;1.504;2022-12-13T15:18:24;8.40;99.90
34766;DHT22;20984;43.508;1.504;2022-12-13T15:20:51;8.40;99.90
34766;DHT22;20984;43.508;1.504;2022-12-13T15:25:51;8.30;99.90
34766;DHT22;20984;43.508;1.504;2022-12-13T15:28:20;8.20;99.90
34766;DHT22;20984;43.508;1.504;2022-12-13T15:30:46;8.10;99.90
34766;DHT22;20984;43.508;1.504;2022-12-13T15:33:20;8.10;99.90
34766;DHT22;20984;43.508;1.504;2022-12-13T15:35:48;8.10;99.90
34766;DHT22;20984;43.508;1.504;2022-12-13T15:38:18;8.00;99.90
34766;DHT22;20984;43.508;1.504;2022-12-13T15:40:48;8.00;99.90
34766;DHT22;20984;43.508;1.504;2022-12-13T15:43:20;7.90;99.90
34766;DHT22;20984;43.508;1.504;2022-12-13T15:45:48;7.90;99.90
34766;DHT22;20984;43.508;1.504;2022-12-13T15:48:26;7.80;99.90
34766;DHT22;20984;43.508;1.504;2022-12-13T15:53:31;7.70;99.90
34766;DHT22;20984;43.508;1.504;2022-12-13T15:55:58;7.70;99.90
34766;DHT22;20984;43.508;1.504;2022-12-13T16:00:54;7.60;99.90
34766;DHT22;20984;43.508;1.504;2022-12-13T16:03:23;7.60;99.90
34766;DHT22;20984;43.508;1.504;2022-12-13T16:05:52;7.60;99.90
34766;DHT22;20984;43.508;1.504;2022-12-13T16:10:53;7.60;99.90
34766;DHT22;20984;43.508;1.504;2022-12-13T16:13:31;7.60;99.90
34766;DHT22;20984;43.508;1.504;2022-12-13T16:16:01;7.60;99.90
34766;DHT22;20984;43.508;1.504;2022-12-13T16:18:51;7.60;99.90
34766;DHT22;20984;43.508;1.504;2022-12-13T16:21:17;7.50;99.90
34766;DHT22;20984;43.508;1.504;2022-12-13T16:23:42;7.50;99.90
34766;DHT22;20984;43.508;1.504;2022-12-13T16:26:11;7.50;99.90
34766;DHT22;20984;43.508;1.504;2022-12-13T16:28:40;7.50;99.90
34766;DHT22;20984;43.508;1.504;2022-12-13T16:31:21;7.50;99.90
34766;DHT22;20984;43.508;1.504;2022-12-13T16:33:48;7.50;99.90
34766;DHT22;20984;43.508;1.504;2022-12-13T16:36:14;7.50;99.90
34766;DHT22;20984;43.508;1.504;2022-12-13T16:38:40;7.50;99.90
34766;DHT22;20984;43.508;1.504;2022-12-13T16:41:06;7.50;99.90
34766;DHT22;20984;43.508;1.504;2022-12-13T16:43:36;7.50;99.90
34766;DHT22;20984;43.508;1.504;2022-12-13T16:46:03;7.50;99.90
34766;DHT22;20984;43.508;1.504;2022-12-13T16:48:29;7.50;99.90
34766;DHT22;20984;43.508;1.504;2022-12-13T16:50:56;7.50;99.90
34766;DHT22;20984;43.508;1.504;2022-12-13T16:53:21;7.50;99.90
34766;DHT22;20984;43.508;1.504;2022-12-13T16:55:47;7.50;99.90
34766;DHT22;20984;43.508;1.504;2022-12-13T16:58:15;7.50;99.90
34766;DHT22;20984;43.508;1.504;2022-12-13T17:00:43;7.50;99.90
34766;DHT22;20984;43.508;1.504;2022-12-13T17:03:12;7.50;99.90
34766;DHT22;20984;43.508;1.504;2022-12-13T17:05:39;7.60;99.90
34766;DHT22;20984;43.508;1.504;2022-12-13T17:08:07;7.60;99.90
34766;DHT22;20984;43.508;1.504;2022-12-13T17:10:33;7.60;99.90
34766;DHT22;20984;43.508;1.504;2022-12-13T17:12:58;7.60;99.90
34766;DHT22;20984;43.508;1.504;2022-12-13T17:15:24;7.60;99.90
34766;DHT22;20984;43.508;1.504;2022-12-13T17:17:50;7.70;99.90
34766;DHT22;20984;43.508;1.504;2022-12-13T17:20:17;7.70;99.90
34766;DHT22;20984;43.508;1.504;2022-12-13T17:22:44;7.70;99.90
34766;DHT22;20984;43.508;1.504;2022-12-13T17:25:11;7.70;99.90
34766;DHT22;20984;43.508;1.504;2022-12-13T17:27:37;7.70;99.90
34766;DHT22;20984;43.508;1.504;2022-12-13T17:30:05;7.70;99.90
34766;DHT22;20984;43.508;1.504;2022-12-13T17:32:33;7.70;99.90
34766;DHT22;20984;43.508;1.504;2022-12-13T17:34:59;7.70;99.90
34766;DHT22;20984;43.508;1.504;2022-12-13T17:37:25;7.70;99.90
34766;DHT22;20984;43.508;1.504;2022-12-13T17:39:50;7.70;99.90
34766;DHT22;20984;43.508;1.504;2022-12-13T17:42:16;7.70;99.90
34766;DHT22;20984;43.508;1.504;2022-12-13T17:44:42;7.70;99.90
34766;DHT22;20984;43.508;1.504;2022-12-13T17:47:08;7.60;99.90
34766;DHT22;20984;43.508;1.504;2022-12-13T17:49:34;7.70;99.90
34766;DHT22;20984;43.508;1.504;2022-12-13T17:52:00;7.60;99.90
34766;DHT22;20984;43.508;1.504;2022-12-13T17:54:26;7.60;99.90
34766;DHT22;20984;43.508;1.504;2022-12-13T17:56:53;7.70;99.90
34766;DHT22;20984;43.508;1.504;2022-12-13T17:59:19;7.70;99.90
34766;DHT22;20984;43.508;1.504;2022-12-13T18:01:46;7.60;99.90
34766;DHT22;20984;43.508;1.504;2022-12-13T18:04:12;7.70;99.90
34766;DHT22;20984;43.508;1.504;2022-12-13T18:06:39;7.60;99.90
34766;DHT22;20984;43.508;1.504;2022-12-13T18:09:06;7.60;99.90
34766;DHT22;20984;43.508;1.504;2022-12-13T18:11:32;7.60;99.90
34766;DHT22;20984;43.508;1.504;2022-12-13T18:13:58;7.60;99.90
34766;DHT22;20984;43.508;1.504;2022-12-13T18:16:25;7.70;99.90
34766;DHT22;20984;43.508;1.504;2022-12-13T18:18:55;7.70;99.90
34766;DHT22;20984;43.508;1.504;2022-12-13T18:21:23;7.70;99.90
34766;DHT22;20984;43.508;1.504;2022-12-13T18:23:49;7.70;99.90
34766;DHT22;20984;43.508;1.504;2022-12-13T18:26:17;7.80;99.90
34766;DHT22;20984;43.508;1.504;2022-12-13T18:28:43;7.80;99.90
34766;DHT22;20984;43.508;1.504;2022-12-13T18:31:15;7.90;99.90
34766;DHT22;20984;43.508;1.504;2022-12-13T18:33:44;7.90;99.90
34766;DHT22;20984;43.508;1.504;2022-12-13T18:36:10;7.90;99.90
34766;DHT22;20984;43.508;1.504;2022-12-13T18:38:37;7.90;99.90
34766;DHT22;20984;43.508;1.504;2022-12-13T18:41:12;8.00;99.90
34766;DHT22;20984;43.508;1.504;2022-12-13T18:43:41;7.90;99.90
34766;DHT22;20984;43.508;1.504;2022-12-13T18:46:08;8.00;99.90
34766;DHT22;20984;43.508;1.504;2022-12-13T18:48:34;8.00;99.90
34766;DHT22;20984;43.508;1.504;2022-12-13T18:51:01;8.10;99.90